Wetterdaten: Woche 20.04.09 - 26.04.09 (KW17)
Datum Zeit Temperatur Luftfeuchte Luftdruck Niederschlag Windrichtung Wind
20.04.2009 00:00 11,6 C 70 % 1016,8 hPa 0,0 l/m N-NO 18,1 km/h (3 Bft)
20.04.2009 01:00 10,6 C 73 % 1017,0 hPa 0,0 l/m N-NO 14,1 km/h (3 Bft)
20.04.2009 02:00 9,7 C 77 % 1016,9 hPa 0,0 l/m N-NO 9,4 km/h (2 Bft)
20.04.2009 03:00 8,9 C 81 % 1016,8 hPa 0,0 l/m N 7,2 km/h (2 Bft)
20.04.2009 04:00 8,4 C 83 % 1016,6 hPa 0,0 l/m N-NO 9,1 km/h (2 Bft)
20.04.2009 05:00 8,6 C 81 % 1016,5 hPa 0,0 l/m N 8,3 km/h (2 Bft)
20.04.2009 06:00 8,3 C 80 % 1016,7 hPa 0,0 l/m NO 8,7 km/h (2 Bft)
20.04.2009 07:00 8,6 C 79 % 1017,1 hPa 0,0 l/m N-NO 9,7 km/h (2 Bft)
20.04.2009 08:00 10,3 C 73 % 1017,3 hPa 0,0 l/m O-NO 15,0 km/h (3 Bft)
20.04.2009 09:00 12,0 C 67 % 1017,2 hPa 0,0 l/m NO 16,9 km/h (3 Bft)
20.04.2009 10:00 13,3 C 63 % 1017,2 hPa 0,0 l/m NO 14,2 km/h (3 Bft)
20.04.2009 11:00 14,7 C 60 % 1017,1 hPa 0,0 l/m O 14,9 km/h (3 Bft)
20.04.2009 12:00 16,2 C 55 % 1016,8 hPa 0,0 l/m O-NO 17,7 km/h (3 Bft)
20.04.2009 13:00 17,6 C 51 % 1016,5 hPa 0,0 l/m O-NO 20,1 km/h (4 Bft)
20.04.2009 14:00 18,7 C 48 % 1016,3 hPa 0,0 l/m N-NO 21,0 km/h (4 Bft)
20.04.2009 15:00 19,0 C 47 % 1016,0 hPa 0,0 l/m NO 18,9 km/h (3 Bft)
20.04.2009 16:00 19,2 C 48 % 1015,6 hPa 0,0 l/m O-NO 20,4 km/h (4 Bft)
20.04.2009 17:00 19,3 C 47 % 1015,5 hPa 0,0 l/m NO 18,6 km/h (3 Bft)
20.04.2009 18:00 18,8 C 50 % 1015,2 hPa 0,0 l/m N-NO 20,6 km/h (4 Bft)
20.04.2009 19:00 18,0 C 53 % 1015,3 hPa 0,0 l/m NO 17,8 km/h (3 Bft)
20.04.2009 20:00 16,6 C 57 % 1015,9 hPa 0,0 l/m N-NO 14,5 km/h (3 Bft)
20.04.2009 21:00 15,0 C 64 % 1016,3 hPa 0,0 l/m N 11,4 km/h (2 Bft)
20.04.2009 22:00 14,7 C 66 % 1016,6 hPa 0,0 l/m O-NO 8,8 km/h (2 Bft)
20.04.2009 23:00 14,1 C 68 % 1016,6 hPa 0,0 l/m NO 10,9 km/h (2 Bft)
21.04.2009 00:00 13,7 C 69 % 1016,5 hPa 0,0 l/m NO 9,6 km/h (2 Bft)
21.04.2009 01:00 12,5 C 74 % 1016,5 hPa 0,0 l/m N-NO 9,0 km/h (2 Bft)
21.04.2009 02:00 11,6 C 78 % 1016,4 hPa 0,0 l/m N 9,5 km/h (2 Bft)
21.04.2009 03:00 10,7 C 80 % 1016,4 hPa 0,0 l/m N-NW 9,3 km/h (2 Bft)
21.04.2009 04:00 10,1 C 82 % 1016,5 hPa 0,0 l/m N 9,6 km/h (2 Bft)
21.04.2009 05:00 9,5 C 83 % 1016,6 hPa 0,0 l/m N 11,4 km/h (2 Bft)
21.04.2009 06:00 8,9 C 85 % 1016,8 hPa 0,0 l/m N-NO 11,3 km/h (2 Bft)
21.04.2009 07:00 9,2 C 84 % 1017,2 hPa 0,0 l/m N-NO 11,3 km/h (2 Bft)
21.04.2009 08:00 11,1 C 76 % 1017,2 hPa 0,0 l/m N-NO 13,0 km/h (3 Bft)
21.04.2009 09:00 13,0 C 70 % 1017,4 hPa 0,0 l/m O-NO 12,2 km/h (2 Bft)
21.04.2009 10:00 14,8 C 64 % 1017,3 hPa 0,0 l/m NO 13,0 km/h (3 Bft)
21.04.2009 11:00 16,1 C 60 % 1017,2 hPa 0,0 l/m NO 15,2 km/h (3 Bft)
21.04.2009 12:00 17,7 C 54 % 1016,8 hPa 0,0 l/m O-NO 18,1 km/h (3 Bft)
21.04.2009 13:00 19,2 C 48 % 1016,5 hPa 0,0 l/m NO 22,6 km/h (4 Bft)
21.04.2009 14:00 20,2 C 44 % 1016,3 hPa 0,0 l/m O-NO 22,4 km/h (4 Bft)
21.04.2009 15:00 20,2 C 41 % 1016,0 hPa 0,0 l/m O-SO 21,3 km/h (4 Bft)
21.04.2009 16:00 20,2 C 40 % 1015,6 hPa 0,0 l/m O-NO 21,4 km/h (4 Bft)
21.04.2009 17:00 19,8 C 41 % 1015,5 hPa 0,0 l/m N-NO 21,6 km/h (4 Bft)
21.04.2009 18:00 18,7 C 43 % 1015,6 hPa 0,0 l/m O 16,1 km/h (3 Bft)
21.04.2009 19:00 18,2 C 43 % 1016,1 hPa 0,0 l/m O-NO 14,1 km/h (3 Bft)
21.04.2009 20:00 16,4 C 50 % 1016,7 hPa 0,0 l/m N-NO 8,2 km/h (2 Bft)
21.04.2009 21:00 14,0 C 62 % 1017,6 hPa 0,0 l/m N 5,2 km/h (1 Bft)
21.04.2009 22:00 13,0 C 67 % 1017,9 hPa 0,0 l/m N 6,0 km/h (2 Bft)
21.04.2009 23:00 12,3 C 69 % 1017,8 hPa 0,0 l/m N-NW 7,8 km/h (2 Bft)
22.04.2009 00:00 11,1 C 74 % 1018,1 hPa 0,0 l/m N-NW 5,2 km/h (1 Bft)
22.04.2009 01:00 10,5 C 76 % 1018,3 hPa 0,0 l/m N-NW 5,7 km/h (1 Bft)
22.04.2009 02:00 9,9 C 79 % 1018,3 hPa 0,0 l/m N-NW 5,9 km/h (2 Bft)
22.04.2009 03:00 9,4 C 81 % 1018,2 hPa 0,0 l/m N-NW 4,1 km/h (1 Bft)
22.04.2009 04:00 9,2 C 80 % 1018,2 hPa 0,0 l/m N-NW 6,6 km/h (2 Bft)
22.04.2009 05:00 8,4 C 83 % 1018,1 hPa 0,0 l/m N-NW 5,2 km/h (1 Bft)
22.04.2009 06:00 8,0 C 83 % 1018,2 hPa 0,0 l/m S-SW 2,5 km/h (1 Bft)
22.04.2009 07:00 7,5 C 86 % 1018,7 hPa 0,0 l/m N 0,3 km/h (0 Bft)
22.04.2009 08:00 9,2 C 83 % 1018,8 hPa 0,0 l/m S-SW 2,0 km/h (1 Bft)
22.04.2009 09:00 12,9 C 70 % 1018,7 hPa 0,0 l/m O 4,1 km/h (1 Bft)
22.04.2009 10:00 15,4 C 60 % 1018,4 hPa 0,0 l/m SW 5,7 km/h (1 Bft)
22.04.2009 11:00 17,3 C 49 % 1018,3 hPa 0,0 l/m NO 13,2 km/h (3 Bft)
22.04.2009 12:00 17,9 C 43 % 1017,7 hPa 0,0 l/m N 12,3 km/h (3 Bft)
22.04.2009 13:00 18,2 C 42 % 1017,2 hPa 0,0 l/m W-NW 13,3 km/h (3 Bft)
22.04.2009 14:00 19,5 C 37 % 1016,6 hPa 0,0 l/m N-NO 14,2 km/h (3 Bft)
22.04.2009 15:00 19,5 C 37 % 1016,2 hPa 0,0 l/m N-NW 17,8 km/h (3 Bft)
22.04.2009 16:00 19,5 C 35 % 1015,8 hPa 0,0 l/m NO 17,8 km/h (3 Bft)
22.04.2009 17:00 18,5 C 38 % 1015,6 hPa 0,0 l/m N 18,8 km/h (3 Bft)
22.04.2009 18:00 16,6 C 46 % 1016,2 hPa 0,0 l/m N-NO 22,7 km/h (4 Bft)
22.04.2009 19:00 15,1 C 51 % 1016,6 hPa 0,0 l/m N-NO 21,7 km/h (4 Bft)
22.04.2009 20:00 13,4 C 53 % 1017,2 hPa 0,0 l/m N 21,0 km/h (4 Bft)
22.04.2009 21:00 12,0 C 54 % 1017,8 hPa 0,0 l/m N-NO 9,9 km/h (2 Bft)
22.04.2009 22:00 10,8 C 58 % 1018,3 hPa 0,0 l/m N-NW 6,3 km/h (2 Bft)
22.04.2009 23:00 10,1 C 56 % 1018,9 hPa 0,0 l/m N-NO 6,7 km/h (2 Bft)
23.04.2009 00:00 9,9 C 57 % 1019,0 hPa 0,0 l/m N-NO 3,1 km/h (1 Bft)
23.04.2009 01:00 9,0 C 59 % 1019,1 hPa 0,0 l/m N-NW 5,7 km/h (1 Bft)
23.04.2009 02:00 8,0 C 62 % 1018,9 hPa 0,0 l/m N-NW 6,1 km/h (2 Bft)
23.04.2009 03:00 6,8 C 67 % 1018,7 hPa 0,0 l/m NW 5,1 km/h (1 Bft)
23.04.2009 04:00 5,5 C 73 % 1018,7 hPa 0,0 l/m NW 2,7 km/h (1 Bft)
23.04.2009 05:00 5,8 C 72 % 1018,6 hPa 0,0 l/m NW 7,4 km/h (2 Bft)
23.04.2009 06:00 5,6 C 73 % 1018,6 hPa 0,0 l/m N-NW 8,6 km/h (2 Bft)
23.04.2009 07:00 5,7 C 73 % 1018,9 hPa 0,0 l/m N-NW 8,2 km/h (2 Bft)
23.04.2009 08:00 7,4 C 68 % 1019,0 hPa 0,0 l/m N-NW 11,4 km/h (2 Bft)
23.04.2009 09:00 9,3 C 59 % 1019,1 hPa 0,0 l/m N 12,5 km/h (3 Bft)
23.04.2009 10:00 11,0 C 47 % 1019,2 hPa 0,0 l/m N-NO 13,4 km/h (3 Bft)
23.04.2009 11:00 11,5 C 43 % 1019,2 hPa 0,0 l/m W-NW 15,3 km/h (3 Bft)
23.04.2009 12:00 11,9 C 39 % 1019,3 hPa 0,0 l/m N 14,8 km/h (3 Bft)
23.04.2009 13:00 12,4 C 41 % 1019,0 hPa 0,0 l/m N-NO 22,0 km/h (4 Bft)
23.04.2009 14:00 12,2 C 41 % 1019,0 hPa 0,0 l/m N 23,9 km/h (4 Bft)
23.04.2009 15:00 12,0 C 42 % 1018,9 hPa 0,0 l/m N-NO 20,5 km/h (4 Bft)
23.04.2009 16:00 12,0 C 43 % 1018,7 hPa 0,0 l/m N-NO 21,8 km/h (4 Bft)
23.04.2009 17:00 11,5 C 46 % 1018,6 hPa 0,0 l/m NO 24,1 km/h (4 Bft)
23.04.2009 18:00 10,4 C 49 % 1018,8 hPa 0,0 l/m NO 24,0 km/h (4 Bft)
23.04.2009 19:00 8,3 C 61 % 1019,7 hPa 0,0 l/m NO 20,4 km/h (4 Bft)
23.04.2009 20:00 7,0 C 67 % 1020,4 hPa 0,0 l/m O-NO 10,6 km/h (2 Bft)
23.04.2009 21:00 6,0 C 75 % 1020,9 hPa 0,0 l/m NO 8,7 km/h (2 Bft)
23.04.2009 22:00 4,4 C 83 % 1020,9 hPa 0,0 l/m NO 2,3 km/h (1 Bft)
23.04.2009 23:00 3,5 C 88 % 1021,0 hPa 0,0 l/m N 1,1 km/h (0 Bft)
24.04.2009 00:00 3,2 C 90 % 1021,2 hPa 0,0 l/m N-NW 4,8 km/h (1 Bft)
24.04.2009 01:00 3,6 C 89 % 1021,1 hPa 0,0 l/m N 5,9 km/h (2 Bft)
24.04.2009 02:00 3,1 C 91 % 1020,6 hPa 0,0 l/m N-NO 4,8 km/h (1 Bft)
24.04.2009 03:00 3,2 C 92 % 1020,2 hPa 0,0 l/m NO 6,4 km/h (2 Bft)
24.04.2009 04:00 2,5 C 93 % 1019,9 hPa 0,0 l/m O-NO 4,0 km/h (1 Bft)
24.04.2009 05:00 3,0 C 93 % 1019,7 hPa 0,0 l/m NO 8,8 km/h (2 Bft)
24.04.2009 06:00 3,1 C 92 % 1019,3 hPa 0,0 l/m NO 10,2 km/h (2 Bft)
24.04.2009 07:00 3,7 C 90 % 1019,0 hPa 0,0 l/m NO 16,4 km/h (3 Bft)
24.04.2009 08:00 4,6 C 88 % 1018,9 hPa 0,0 l/m O 18,6 km/h (3 Bft)
24.04.2009 09:00 6,4 C 80 % 1018,7 hPa 0,0 l/m NO 22,6 km/h (4 Bft)
24.04.2009 10:00 7,8 C 72 % 1018,2 hPa 0,0 l/m O-NO 27,1 km/h (4 Bft)
24.04.2009 11:00 10,2 C 63 % 1017,7 hPa 0,0 l/m O-NO 22,8 km/h (4 Bft)
24.04.2009 12:00 12,1 C 54 % 1017,3 hPa 0,0 l/m O-SO 25,6 km/h (4 Bft)
24.04.2009 13:00 13,9 C 45 % 1016,8 hPa 0,0 l/m O-SO 24,1 km/h (4 Bft)
24.04.2009 14:00 15,0 C 38 % 1016,0 hPa 0,0 l/m O-SO 20,2 km/h (4 Bft)
24.04.2009 15:00 15,7 C 37 % 1015,4 hPa 0,0 l/m O-SO 20,8 km/h (4 Bft)
24.04.2009 16:00 16,2 C 38 % 1014,9 hPa 0,0 l/m NO 19,8 km/h (4 Bft)
24.04.2009 17:00 16,3 C 36 % 1014,4 hPa 0,0 l/m O-SO 18,2 km/h (3 Bft)
24.04.2009 18:00 16,2 C 35 % 1014,0 hPa 0,0 l/m O 15,7 km/h (3 Bft)
24.04.2009 19:00 15,4 C 39 % 1013,7 hPa 0,0 l/m O 11,1 km/h (2 Bft)
24.04.2009 20:00 13,4 C 46 % 1013,6 hPa 0,0 l/m O 5,5 km/h (1 Bft)
24.04.2009 21:00 9,7 C 63 % 1013,6 hPa 0,0 l/m N 1,3 km/h (1 Bft)
24.04.2009 22:00 8,2 C 69 % 1013,7 hPa 0,0 l/m N 0,8 km/h (0 Bft)
24.04.2009 23:00 6,9 C 75 % 1013,6 hPa 0,0 l/m N 0,4 km/h (0 Bft)
25.04.2009 00:00 5,9 C 79 % 1013,3 hPa 0,0 l/m N 0,1 km/h (0 Bft)
25.04.2009 01:00 5,0 C 80 % 1013,4 hPa 0,0 l/m N 0,3 km/h (0 Bft)
25.04.2009 02:00 5,3 C 74 % 1013,3 hPa 0,0 l/m O 2,4 km/h (1 Bft)
25.04.2009 03:00 5,2 C 73 % 1013,2 hPa 0,0 l/m S-SW 1,9 km/h (1 Bft)
25.04.2009 04:00 5,1 C 74 % 1013,3 hPa 0,0 l/m NW 1,6 km/h (1 Bft)
25.04.2009 05:00 4,2 C 79 % 1013,4 hPa 0,0 l/m N 0,5 km/h (0 Bft)
25.04.2009 06:00 4,0 C 81 % 1013,4 hPa 0,0 l/m NW 1,1 km/h (0 Bft)
25.04.2009 07:00 5,7 C 75 % 1013,8 hPa 0,0 l/m NW 2,0 km/h (1 Bft)
25.04.2009 08:00 9,5 C 57 % 1014,3 hPa 0,0 l/m NW 3,1 km/h (1 Bft)
25.04.2009 09:00 13,4 C 47 % 1014,3 hPa 0,0 l/m SO 10,2 km/h (2 Bft)
25.04.2009 10:00 16,4 C 36 % 1014,2 hPa 0,0 l/m SW 21,2 km/h (4 Bft)
25.04.2009 11:00 18,3 C 31 % 1014,1 hPa 0,0 l/m S-SW 19,6 km/h (3 Bft)
25.04.2009 12:00 19,6 C 26 % 1013,7 hPa 0,0 l/m SO 15,1 km/h (3 Bft)
25.04.2009 13:00 20,4 C 25 % 1013,0 hPa 0,0 l/m O-SO 11,5 km/h (2 Bft)
25.04.2009 14:00 21,0 C 22 % 1012,7 hPa 0,0 l/m SO 15,6 km/h (3 Bft)
25.04.2009 15:00 21,3 C 23 % 1012,2 hPa 0,0 l/m O-SO 14,1 km/h (3 Bft)
25.04.2009 16:00 21,7 C 23 % 1011,6 hPa 0,0 l/m O-SO 13,9 km/h (3 Bft)
25.04.2009 17:00 21,8 C 23 % 1010,9 hPa 0,0 l/m O-SO 16,8 km/h (3 Bft)
25.04.2009 18:00 21,2 C 23 % 1010,6 hPa 0,0 l/m O-SO 13,7 km/h (3 Bft)
25.04.2009 19:00 19,9 C 26 % 1010,6 hPa 0,0 l/m O-SO 13,3 km/h (3 Bft)
25.04.2009 20:00 17,8 C 30 % 1010,9 hPa 0,0 l/m O 9,8 km/h (2 Bft)
25.04.2009 21:00 14,5 C 40 % 1011,2 hPa 0,0 l/m O-NO 3,6 km/h (1 Bft)
25.04.2009 22:00 11,9 C 52 % 1011,3 hPa 0,0 l/m N 1,7 km/h (1 Bft)
25.04.2009 23:00 10,8 C 56 % 1010,7 hPa 0,0 l/m N 0,7 km/h (0 Bft)
26.04.2009 00:00 9,6 C 62 % 1010,2 hPa 0,0 l/m N 0,5 km/h (0 Bft)
26.04.2009 01:00 8,3 C 66 % 1010,2 hPa 0,0 l/m N 0,8 km/h (0 Bft)
26.04.2009 02:00 7,3 C 71 % 1009,7 hPa 0,0 l/m N 0,8 km/h (0 Bft)
26.04.2009 03:00 6,7 C 74 % 1009,5 hPa 0,0 l/m N 0,4 km/h (0 Bft)
26.04.2009 04:00 6,4 C 76 % 1009,3 hPa 0,0 l/m N 0,1 km/h (0 Bft)
26.04.2009 05:00 6,3 C 76 % 1008,9 hPa 0,0 l/m N 0,3 km/h (0 Bft)
26.04.2009 06:00 6,0 C 75 % 1008,7 hPa 0,0 l/m N 0,1 km/h (0 Bft)
26.04.2009 07:00 6,5 C 76 % 1008,5 hPa 0,0 l/m N 0,3 km/h (0 Bft)
26.04.2009 08:00 8,2 C 72 % 1008,7 hPa 0,0 l/m O 1,6 km/h (1 Bft)
26.04.2009 09:00 11,4 C 58 % 1008,8 hPa 0,0 l/m SO 2,9 km/h (1 Bft)
26.04.2009 10:00 16,1 C 41 % 1008,7 hPa 0,0 l/m SW 13,4 km/h (3 Bft)
26.04.2009 11:00 17,8 C 32 % 1008,2 hPa 0,0 l/m SW 13,7 km/h (3 Bft)
26.04.2009 12:00 19,4 C 29 % 1007,4 hPa 0,0 l/m W-SW 13,5 km/h (3 Bft)
26.04.2009 13:00 20,8 C 30 % 1006,6 hPa 0,0 l/m S-SW 21,2 km/h (4 Bft)
26.04.2009 14:00 21,6 C 27 % 1005,8 hPa 0,0 l/m O-SO 20,5 km/h (4 Bft)
26.04.2009 15:00 22,0 C 26 % 1004,8 hPa 0,0 l/m SO 21,1 km/h (4 Bft)
26.04.2009 16:00 22,2 C 27 % 1004,1 hPa 0,0 l/m SW 18,1 km/h (3 Bft)
26.04.2009 17:00 21,5 C 28 % 1003,6 hPa 0,0 l/m SW 23,7 km/h (4 Bft)
26.04.2009 18:00 20,1 C 31 % 1003,5 hPa 0,0 l/m W-SW 22,3 km/h (4 Bft)
26.04.2009 19:00 18,6 C 35 % 1003,1 hPa 0,0 l/m SW 9,7 km/h (2 Bft)
26.04.2009 20:00 16,9 C 41 % 1002,7 hPa 0,0 l/m S 4,3 km/h (1 Bft)
26.04.2009 21:00 15,6 C 45 % 1003,2 hPa 0,0 l/m S-SW 4,9 km/h (1 Bft)
26.04.2009 22:00 14,6 C 47 % 1003,5 hPa 0,0 l/m S-SW 8,2 km/h (2 Bft)
26.04.2009 23:00 13,6 C 49 % 1003,5 hPa 0,0 l/m S-SW 4,8 km/h (1 Bft)
Min-Datum _ 24.04.09 25.04.09 26.04.09 - - 22.04.09
_ Min-Zeit 04:20 14:20 20:45 - - 03:30
Minimum _ 2,3 C 21 % 1002,6 hPa - - 0,0 km/h (0 Bft)
Max-Datum _ 26.04.09 24.04.09 24.04.09 20.04.09 - 21.04.09
_ Max-Zeit 16:55 04:30 00:45 00:00 - 14:20
Maximum _ 22,5 C 94 % 1021,3 hPa 0,0 l/m - 33,8 km/h
NO (5 Bft)
Durchschnitt _ 12,4 C 59 % 1015,2 hPa #0,0 l/m NO 11,4 km/h (2 Bft)